createdAt,value
2017-06-25T00:00:53.274Z,85.10
2017-06-25T00:03:20.834Z,85.60
2017-06-25T00:05:48.366Z,85.10
2017-06-25T00:08:16.690Z,85.00
2017-06-25T00:10:44.230Z,85.00
2017-06-25T00:13:11.790Z,85.10
2017-06-25T00:15:39.379Z,85.10
2017-06-25T00:18:07.015Z,85.70
2017-06-25T00:20:34.522Z,85.90
2017-06-25T00:23:02.235Z,86.00
2017-06-25T00:25:29.803Z,85.80
2017-06-25T00:27:57.310Z,85.80
2017-06-25T00:30:24.918Z,85.50
2017-06-25T00:32:52.419Z,85.50
2017-06-25T00:35:19.930Z,85.20
2017-06-25T00:37:47.598Z,85.00
2017-06-25T00:40:15.158Z,85.00
2017-06-25T00:42:42.655Z,84.90
2017-06-25T00:45:10.358Z,81.00
2017-06-25T00:47:37.858Z,81.50
2017-06-25T00:50:05.398Z,81.30
2017-06-25T00:52:32.918Z,81.50
2017-06-25T00:55:01.249Z,80.90
2017-06-25T00:57:28.790Z,80.90
2017-06-25T00:59:56.315Z,80.90
2017-06-25T01:02:23.910Z,80.90
2017-06-25T01:04:51.449Z,80.60
2017-06-25T01:07:19.710Z,83.10
2017-06-25T01:09:47.983Z,83.30
2017-06-25T01:12:15.794Z,83.60
2017-06-25T01:14:43.354Z,84.90
2017-06-25T01:17:10.915Z,85.90
2017-06-25T01:19:38.474Z,86.80
2017-06-25T01:22:06.035Z,87.90
2017-06-25T01:24:33.594Z,89.10
2017-06-25T01:27:01.126Z,90.10
2017-06-25T01:29:28.630Z,90.60
2017-06-25T01:31:56.130Z,90.80
2017-06-25T01:34:23.725Z,90.90
2017-06-25T01:36:51.222Z,91.10
2017-06-25T01:39:18.762Z,91.50
2017-06-25T01:41:46.522Z,91.70
2017-06-25T01:44:14.019Z,92.20
2017-06-25T01:46:41.535Z,92.60
2017-06-25T01:49:09.094Z,92.80
2017-06-25T01:51:36.603Z,93.00
2017-06-25T01:54:04.114Z,93.10
2017-06-25T01:56:31.907Z,93.20
2017-06-25T01:58:59.434Z,93.50
2017-06-25T02:01:26.941Z,93.90
2017-06-25T02:03:54.458Z,94.10
2017-06-25T02:06:22.005Z,94.30
2017-06-25T02:08:49.566Z,94.00
2017-06-25T02:11:17.065Z,93.90
2017-06-25T02:13:44.581Z,93.90
2017-06-25T02:16:12.142Z,94.10
2017-06-25T02:18:39.683Z,94.40
2017-06-25T02:21:08.086Z,94.60
2017-06-25T02:23:35.582Z,94.50
2017-06-25T02:26:03.110Z,94.70
2017-06-25T02:28:30.649Z,94.80
2017-06-25T02:30:58.215Z,94.70
2017-06-25T02:33:25.714Z,95.00
2017-06-25T02:35:53.337Z,95.00
2017-06-25T02:38:20.829Z,95.40
2017-06-25T02:40:48.458Z,95.30
2017-06-25T02:43:15.954Z,95.40
2017-06-25T02:45:43.582Z,95.30
2017-06-25T02:48:11.102Z,95.40
2017-06-25T02:50:38.693Z,95.50
2017-06-25T02:53:06.233Z,95.70
2017-06-25T02:55:34.509Z,95.70
2017-06-25T02:58:02.781Z,95.90
2017-06-25T03:00:31.295Z,95.80
2017-06-25T03:02:58.798Z,95.80
2017-06-25T03:05:26.289Z,95.60
2017-06-25T03:07:54.794Z,95.40
2017-06-25T03:10:22.359Z,95.40
2017-06-25T03:12:49.857Z,95.40
2017-06-25T03:15:17.472Z,95.20
2017-06-25T03:17:45.038Z,95.20
2017-06-25T03:20:12.542Z,95.20
2017-06-25T03:22:40.063Z,95.00
2017-06-25T03:25:07.613Z,94.90
2017-06-25T03:27:35.274Z,95.10
2017-06-25T03:30:02.834Z,94.90
2017-06-25T03:32:30.491Z,95.30
2017-06-25T03:34:58.158Z,95.20
2017-06-25T03:37:25.650Z,95.20
2017-06-25T03:39:53.149Z,95.10
2017-06-25T03:42:21.449Z,95.10
2017-06-25T03:44:49.019Z,95.10
2017-06-25T03:47:16.524Z,95.40
2017-06-25T03:49:44.042Z,95.50
2017-06-25T03:52:11.589Z,95.40
2017-06-25T03:54:39.149Z,95.10
2017-06-25T03:57:06.666Z,95.20
2017-06-25T03:59:34.159Z,95.60
2017-06-25T04:02:01.849Z,95.60
2017-06-25T04:04:29.341Z,95.40
2017-06-25T04:06:56.829Z,95.50
2017-06-25T04:09:25.139Z,95.40
2017-06-25T04:11:52.682Z,95.40
2017-06-25T04:14:20.175Z,95.10
2017-06-25T04:16:47.798Z,95.00
2017-06-25T04:19:15.306Z,95.20
2017-06-25T04:21:42.918Z,95.40
2017-06-25T04:24:10.410Z,95.00
2017-06-25T04:26:38.042Z,94.70
2017-06-25T04:29:05.542Z,94.30
2017-06-25T04:31:33.045Z,94.00
2017-06-25T04:34:01.503Z,94.30
2017-06-25T04:36:28.998Z,94.10
2017-06-25T04:38:56.578Z,94.10
2017-06-25T04:41:24.721Z,94.10
2017-06-25T04:43:52.219Z,94.10
2017-06-25T04:46:19.742Z,94.10
2017-06-25T04:48:47.238Z,94.10
2017-06-25T04:51:14.778Z,94.00
2017-06-25T04:53:42.278Z,94.00
2017-06-25T04:56:09.774Z,94.00
2017-06-25T04:58:37.318Z,94.10
2017-06-25T05:01:05.726Z,94.30
2017-06-25T05:03:33.229Z,94.30
2017-06-25T05:06:00.741Z,94.50
2017-06-25T05:08:28.266Z,94.70
2017-06-25T05:10:55.766Z,95.00
2017-06-25T05:13:23.321Z,94.90
2017-06-25T05:15:50.818Z,94.80
2017-06-25T05:18:18.438Z,94.50
2017-06-25T05:20:45.934Z,94.60
2017-06-25T05:23:13.458Z,94.70
2017-06-25T05:25:40.974Z,94.50
2017-06-25T05:28:08.469Z,94.60
2017-06-25T05:30:36.042Z,94.30
2017-06-25T05:33:03.562Z,94.40
2017-06-25T05:35:31.055Z,94.00
2017-06-25T05:37:58.615Z,93.90
2017-06-25T05:40:26.273Z,93.60
2017-06-25T05:42:53.789Z,92.90
2017-06-25T05:45:21.286Z,92.80
2017-06-25T05:47:48.953Z,92.10
2017-06-25T05:50:16.453Z,92.10
2017-06-25T05:52:43.950Z,92.20
2017-06-25T05:55:12.257Z,91.10
2017-06-25T05:57:39.754Z,91.10
2017-06-25T06:00:07.274Z,90.40
2017-06-25T06:02:34.778Z,89.20
2017-06-25T06:05:02.306Z,89.10
2017-06-25T06:07:29.949Z,88.70
2017-06-25T06:09:57.447Z,89.40
2017-06-25T06:12:24.949Z,87.70
2017-06-25T06:14:53.576Z,86.70
2017-06-25T06:17:21.114Z,86.70
2017-06-25T06:19:48.655Z,85.90
2017-06-25T06:22:16.969Z,86.60
2017-06-25T06:24:44.611Z,87.40
2017-06-25T06:27:12.270Z,87.20
2017-06-25T06:29:39.830Z,87.00
2017-06-25T06:32:07.331Z,87.10
2017-06-25T06:34:34.950Z,86.40
2017-06-25T06:37:02.475Z,86.30
2017-06-25T06:39:29.966Z,82.20
2017-06-25T06:41:57.526Z,80.40
2017-06-25T06:44:25.809Z,78.30
2017-06-25T06:46:53.306Z,78.40
2017-06-25T06:49:20.818Z,79.60
2017-06-25T06:51:48.313Z,79.50
2017-06-25T06:54:15.949Z,80.70
2017-06-25T06:56:43.511Z,79.50
2017-06-25T06:59:11.013Z,79.40
2017-06-25T07:01:38.539Z,79.90
2017-06-25T07:04:06.086Z,79.70
2017-06-25T07:06:33.746Z,80.20
2017-06-25T07:09:01.306Z,80.90
2017-06-25T07:11:28.802Z,81.60
2017-06-25T07:13:56.531Z,78.70
2017-06-25T07:16:24.085Z,79.10
2017-06-25T07:18:51.586Z,77.60
2017-06-25T07:21:19.114Z,77.10
2017-06-25T07:23:46.668Z,76.40
2017-06-25T07:26:14.326Z,76.90
2017-06-25T07:28:41.818Z,76.50
2017-06-25T07:31:09.346Z,73.80
2017-06-25T07:33:37.010Z,73.00
2017-06-25T07:36:04.675Z,73.20
2017-06-25T07:38:32.234Z,70.80
2017-06-25T07:40:59.770Z,70.20
2017-06-25T07:43:28.171Z,70.20
2017-06-25T07:45:55.669Z,70.20
2017-06-25T07:48:23.209Z,69.30
2017-06-25T07:50:50.704Z,68.80
2017-06-25T07:53:18.202Z,68.70
2017-06-25T07:55:45.870Z,67.30
2017-06-25T07:58:15.477Z,67.80
2017-06-25T08:00:43.083Z,65.50
2017-06-25T08:03:10.818Z,65.60
2017-06-25T08:05:38.365Z,64.80
2017-06-25T08:08:05.893Z,62.20
2017-06-25T08:10:33.385Z,62.30
2017-06-25T08:13:00.878Z,61.50
2017-06-25T08:15:28.497Z,60.70
2017-06-25T08:17:56.066Z,58.90
2017-06-25T08:20:23.622Z,58.50
2017-06-25T08:22:51.177Z,57.50
2017-06-25T08:25:18.746Z,57.50
2017-06-25T08:27:46.234Z,57.50
2017-06-25T08:30:13.863Z,58.30
2017-06-25T08:32:41.358Z,57.80
2017-06-25T08:35:08.884Z,57.80
2017-06-25T08:37:36.402Z,57.50
2017-06-25T08:40:03.890Z,57.70
2017-06-25T08:42:31.558Z,57.50
2017-06-25T08:44:59.220Z,57.40
2017-06-25T08:47:26.716Z,55.80
2017-06-25T08:49:54.440Z,54.80
2017-06-25T08:52:22.010Z,53.70
2017-06-25T08:54:49.566Z,53.90
2017-06-25T08:57:17.225Z,54.20
2017-06-25T08:59:44.785Z,54.00
2017-06-25T09:02:12.367Z,52.40
2017-06-25T09:04:39.886Z,54.10
2017-06-25T09:07:07.393Z,52.60
2017-06-25T09:09:34.923Z,51.10
2017-06-25T09:12:02.499Z,52.40
2017-06-25T09:14:30.042Z,50.90
2017-06-25T09:16:57.530Z,51.40
2017-06-25T09:19:25.058Z,48.70
2017-06-25T09:21:52.621Z,47.90
2017-06-25T09:24:20.106Z,46.60
2017-06-25T09:26:47.639Z,46.50
2017-06-25T09:29:15.210Z,47.50
2017-06-25T09:31:42.705Z,47.20
2017-06-25T09:34:10.230Z,47.10
2017-06-25T09:36:37.785Z,48.20
2017-06-25T09:39:05.343Z,50.00
2017-06-25T09:41:32.899Z,54.20
2017-06-25T09:44:00.553Z,58.50
2017-06-25T09:46:28.825Z,65.20
2017-06-25T09:48:57.119Z,68.90
2017-06-25T09:51:24.778Z,69.60
2017-06-25T09:53:52.342Z,72.60
2017-06-25T09:56:19.842Z,75.70
2017-06-25T09:58:47.371Z,76.90
2017-06-25T10:01:14.914Z,79.90
2017-06-25T10:03:42.442Z,80.50
2017-06-25T10:06:10.715Z,83.50
2017-06-25T10:08:38.314Z,83.80
2017-06-25T10:11:06.086Z,84.90
2017-06-25T10:13:33.589Z,85.10
2017-06-25T10:16:01.289Z,82.60
2017-06-25T10:18:28.866Z,81.50
2017-06-25T10:20:56.418Z,81.40
2017-06-25T10:23:23.926Z,79.60
2017-06-25T10:25:51.543Z,76.50
2017-06-25T10:28:19.046Z,76.00
2017-06-25T10:30:46.566Z,74.70
2017-06-25T10:33:14.091Z,71.50
2017-06-25T10:35:42.394Z,74.30
2017-06-25T10:38:10.056Z,74.20
2017-06-25T10:40:37.630Z,70.30
2017-06-25T10:43:05.196Z,70.80
2017-06-25T10:45:32.721Z,63.30
2017-06-25T10:48:01.221Z,58.90
2017-06-25T10:50:28.718Z,59.00
2017-06-25T10:52:56.237Z,58.70
2017-06-25T10:55:23.762Z,53.20
2017-06-25T10:57:51.286Z,48.40
2017-06-25T11:00:18.813Z,49.60
2017-06-25T11:02:46.377Z,48.90
2017-06-25T11:05:13.898Z,43.70
2017-06-25T11:07:41.513Z,43.50
2017-06-25T11:10:09.053Z,43.70
2017-06-25T11:12:36.614Z,39.40
2017-06-25T11:15:04.130Z,39.50
2017-06-25T11:17:31.625Z,40.40
2017-06-25T11:19:59.198Z,41.30
2017-06-25T11:22:26.851Z,41.90
2017-06-25T11:24:54.355Z,42.20
2017-06-25T11:27:21.977Z,44.30
2017-06-25T11:29:49.469Z,45.20
2017-06-25T11:32:17.077Z,45.80
2017-06-25T11:34:44.571Z,45.70
2017-06-25T11:37:12.110Z,46.70
2017-06-25T11:39:39.651Z,47.40
2017-06-25T11:42:07.918Z,49.50
2017-06-25T11:44:35.614Z,49.40
2017-06-25T11:47:03.137Z,49.40
2017-06-25T11:49:30.729Z,49.30
2017-06-25T11:51:58.294Z,49.40
2017-06-25T11:54:25.790Z,45.30
2017-06-25T11:56:53.519Z,46.30
2017-06-25T11:59:21.021Z,47.20
2017-06-25T12:01:48.534Z,47.30
2017-06-25T12:04:16.470Z,47.50
2017-06-25T12:06:44.777Z,46.90
2017-06-25T12:09:12.290Z,46.90
2017-06-25T12:11:39.814Z,46.50
2017-06-25T12:14:07.370Z,46.00
2017-06-25T12:16:34.898Z,46.50
2017-06-25T12:19:03.172Z,45.60
2017-06-25T12:21:31.434Z,44.00
2017-06-25T12:23:58.958Z,43.90
2017-06-25T12:26:26.503Z,42.30
2017-06-25T12:28:54.026Z,43.00
2017-06-25T12:31:21.530Z,43.70
2017-06-25T12:33:49.186Z,40.00
2017-06-25T12:36:17.759Z,39.90
2017-06-25T12:38:45.253Z,38.70
2017-06-25T12:41:12.897Z,38.50
2017-06-25T12:43:40.403Z,38.80
2017-06-25T12:46:08.714Z,39.40
2017-06-25T12:48:36.370Z,39.50
2017-06-25T12:51:03.877Z,40.40
2017-06-25T12:53:31.370Z,40.50
2017-06-25T12:55:59.706Z,41.70
2017-06-25T12:58:27.278Z,41.80
2017-06-25T13:00:54.926Z,41.70
2017-06-25T13:03:22.438Z,42.40
2017-06-25T13:05:50.207Z,42.80
2017-06-25T13:08:17.712Z,43.60
2017-06-25T13:10:45.334Z,43.30
2017-06-25T13:13:12.974Z,43.70
2017-06-25T13:15:41.277Z,43.90
2017-06-25T13:18:08.834Z,43.90
2017-06-25T13:20:36.354Z,43.40
2017-06-25T13:23:03.850Z,43.60
2017-06-25T13:25:31.614Z,43.50
2017-06-25T13:27:59.113Z,42.50
2017-06-25T13:30:26.738Z,42.30
2017-06-25T13:32:54.274Z,42.40
2017-06-25T13:35:22.592Z,42.50
2017-06-25T13:37:50.138Z,42.50
2017-06-25T13:40:17.854Z,42.80
2017-06-25T13:42:45.462Z,43.70
2017-06-25T13:45:13.017Z,44.30
2017-06-25T13:47:40.582Z,44.10
2017-06-25T13:50:08.082Z,43.80
2017-06-25T13:52:35.594Z,43.90
2017-06-25T13:55:03.210Z,43.80
2017-06-25T13:57:31.745Z,44.00
2017-06-25T13:59:59.318Z,43.90
2017-06-25T14:02:26.830Z,42.40
2017-06-25T14:04:54.420Z,42.30
2017-06-25T14:07:22.189Z,42.00
2017-06-25T14:09:49.746Z,41.40
2017-06-25T14:12:17.297Z,41.60
2017-06-25T14:14:44.870Z,42.40
2017-06-25T14:17:12.426Z,42.20
2017-06-25T14:19:39.981Z,43.10
2017-06-25T14:22:07.518Z,43.50
2017-06-25T14:24:35.921Z,42.70
2017-06-25T14:27:03.481Z,42.70
2017-06-25T14:29:31.014Z,42.60
2017-06-25T14:31:58.506Z,42.50
2017-06-25T14:34:26.030Z,42.60
2017-06-25T14:36:53.522Z,43.00
2017-06-25T14:39:21.078Z,43.90
2017-06-25T14:41:48.846Z,44.30
2017-06-25T14:44:16.411Z,43.70
2017-06-25T14:46:43.971Z,44.20
2017-06-25T14:49:11.526Z,44.50
2017-06-25T14:51:39.022Z,44.00
2017-06-25T14:54:06.546Z,43.30
2017-06-25T14:56:34.410Z,44.20
2017-06-25T14:59:01.906Z,44.00
2017-06-25T15:01:29.430Z,42.90
2017-06-25T15:03:56.985Z,42.00
2017-06-25T15:06:24.546Z,41.90
2017-06-25T15:08:52.071Z,41.00
2017-06-25T15:11:19.558Z,40.30
2017-06-25T15:13:47.049Z,39.10
2017-06-25T15:16:14.578Z,38.30
2017-06-25T15:18:42.070Z,38.80
2017-06-25T15:21:09.596Z,38.90
2017-06-25T15:23:37.880Z,38.10
2017-06-25T15:26:05.439Z,38.10
2017-06-25T15:28:33.202Z,38.20
2017-06-25T15:31:00.727Z,37.10
2017-06-25T15:33:28.994Z,37.70
2017-06-25T15:35:56.690Z,38.10
2017-06-25T15:38:24.998Z,37.90
2017-06-25T15:40:52.513Z,37.90
2017-06-25T15:43:20.802Z,37.70
2017-06-25T15:45:49.192Z,37.90
2017-06-25T15:48:16.766Z,38.00
2017-06-25T15:50:44.271Z,38.10
2017-06-25T15:53:11.874Z,38.20
2017-06-25T15:55:39.362Z,37.40
2017-06-25T15:58:08.825Z,36.90
2017-06-25T16:00:37.083Z,35.80
2017-06-25T16:03:04.578Z,35.80
2017-06-25T16:05:32.133Z,34.90
2017-06-25T16:07:59.630Z,33.50
2017-06-25T16:10:27.127Z,32.30
2017-06-25T16:12:55.552Z,31.30
2017-06-25T16:15:23.051Z,31.30
2017-06-25T16:17:50.546Z,31.30
2017-06-25T16:20:18.309Z,30.50
2017-06-25T16:22:45.804Z,30.30
2017-06-25T16:25:13.306Z,31.40
2017-06-25T16:27:40.849Z,30.70
2017-06-25T16:30:08.347Z,29.60
2017-06-25T16:32:35.969Z,29.30
2017-06-25T16:35:03.476Z,30.00
2017-06-25T16:37:30.982Z,29.30
2017-06-25T16:39:58.695Z,29.30
2017-06-25T16:42:26.255Z,30.00
2017-06-25T16:44:53.818Z,31.10
2017-06-25T16:47:21.374Z,30.00
2017-06-25T16:49:49.138Z,30.70
2017-06-25T16:52:16.693Z,31.10
2017-06-25T16:54:44.198Z,31.10
2017-06-25T16:57:11.809Z,31.30
2017-06-25T16:59:40.099Z,31.40
2017-06-25T17:02:07.594Z,31.40
2017-06-25T17:04:35.402Z,31.80
2017-06-25T17:07:03.663Z,31.20
2017-06-25T17:09:31.922Z,30.70
2017-06-25T17:11:59.449Z,30.20
2017-06-25T17:14:26.990Z,30.00
2017-06-25T17:16:54.569Z,29.30
2017-06-25T17:19:22.086Z,29.00
2017-06-25T17:21:49.770Z,29.00
2017-06-25T17:24:17.430Z,28.40
2017-06-25T17:26:45.174Z,28.10
2017-06-25T17:29:13.462Z,28.10
2017-06-25T17:31:41.746Z,28.60
2017-06-25T17:34:10.003Z,28.90
2017-06-25T17:36:38.297Z,29.10
2017-06-25T17:39:06.582Z,28.60
2017-06-25T17:41:34.149Z,28.60
2017-06-25T17:44:01.706Z,28.60
2017-06-25T17:46:29.267Z,29.00
2017-06-25T17:48:56.786Z,29.10
2017-06-25T17:51:24.386Z,29.10
2017-06-25T17:53:51.889Z,29.20
2017-06-25T17:56:19.383Z,29.80
2017-06-25T17:58:46.965Z,29.90
2017-06-25T18:01:14.626Z,30.30
2017-06-25T18:03:42.290Z,30.60
2017-06-25T18:06:09.777Z,30.60
2017-06-25T18:08:37.423Z,30.50
2017-06-25T18:11:05.069Z,31.20
2017-06-25T18:13:32.558Z,31.50
2017-06-25T18:16:00.050Z,31.80
2017-06-25T18:18:27.749Z,32.30
2017-06-25T18:20:55.318Z,32.60
2017-06-25T18:23:22.870Z,32.60
2017-06-25T18:25:50.438Z,33.10
2017-06-25T18:28:17.937Z,33.30
2017-06-25T18:30:45.450Z,33.50
2017-06-25T18:33:13.006Z,33.90
2017-06-25T18:35:40.502Z,33.90
2017-06-25T18:38:08.131Z,34.00
2017-06-25T18:40:35.802Z,34.20
2017-06-25T18:43:03.294Z,34.60
2017-06-25T18:45:31.014Z,34.40
2017-06-25T18:47:59.310Z,35.30
2017-06-25T18:50:26.806Z,35.10
2017-06-25T18:52:54.510Z,35.50
2017-06-25T18:55:22.078Z,36.30
2017-06-25T18:57:49.585Z,36.80
2017-06-25T19:00:17.122Z,37.00
2017-06-25T19:02:44.754Z,36.90
2017-06-25T19:05:12.321Z,37.20
2017-06-25T19:07:39.982Z,37.40
2017-06-25T19:10:07.538Z,37.00
2017-06-25T19:12:35.041Z,36.80
2017-06-25T19:15:02.762Z,36.90
2017-06-25T19:17:30.258Z,37.10
2017-06-25T19:19:57.780Z,37.10
2017-06-25T19:22:25.439Z,37.70
2017-06-25T19:24:52.937Z,37.60
2017-06-25T19:27:20.430Z,37.60
2017-06-25T19:29:48.726Z,37.10
2017-06-25T19:32:17.018Z,37.50
2017-06-25T19:34:44.505Z,37.50
2017-06-25T19:37:12.030Z,37.50
2017-06-25T19:39:39.530Z,37.40
2017-06-25T19:42:07.074Z,37.50
2017-06-25T19:44:34.611Z,37.40
2017-06-25T19:47:02.098Z,37.50
2017-06-25T19:49:29.621Z,37.40
2017-06-25T19:51:57.118Z,37.50
2017-06-25T19:54:24.633Z,37.40
2017-06-25T19:56:52.198Z,37.40
2017-06-25T19:59:19.758Z,37.40
2017-06-25T20:01:47.246Z,37.40
2017-06-25T20:04:14.766Z,37.40
2017-06-25T20:06:43.058Z,39.20
2017-06-25T20:09:10.717Z,39.10
2017-06-25T20:11:38.222Z,40.60
2017-06-25T20:14:05.745Z,42.20
2017-06-25T20:16:33.299Z,43.90
2017-06-25T20:19:00.857Z,44.80
2017-06-25T20:21:28.382Z,45.40
2017-06-25T20:23:56.082Z,46.10
2017-06-25T20:26:23.582Z,46.80
2017-06-25T20:28:51.098Z,47.10
2017-06-25T20:31:18.759Z,47.40
2017-06-25T20:33:46.315Z,48.00
2017-06-25T20:36:13.810Z,48.30
2017-06-25T20:38:41.334Z,48.50
2017-06-25T20:41:08.871Z,49.10
2017-06-25T20:43:37.182Z,49.60
2017-06-25T20:46:04.733Z,49.80
2017-06-25T20:48:32.354Z,49.20
2017-06-25T20:51:00.035Z,49.30
2017-06-25T20:53:28.338Z,50.60
2017-06-25T20:55:55.882Z,50.00
2017-06-25T20:58:24.154Z,50.60
2017-06-25T21:00:52.417Z,51.20
2017-06-25T21:03:20.114Z,51.20
2017-06-25T21:05:47.673Z,51.50
2017-06-25T21:08:15.229Z,52.10
2017-06-25T21:10:42.797Z,52.10
2017-06-25T21:13:10.295Z,52.80
2017-06-25T21:15:37.834Z,52.70
2017-06-25T21:18:05.374Z,52.70
2017-06-25T21:20:32.872Z,52.80
2017-06-25T21:23:00.599Z,52.20
2017-06-25T21:25:28.287Z,50.80
2017-06-25T21:27:56.346Z,50.70
2017-06-25T21:30:24.321Z,49.50
2017-06-25T21:32:52.285Z,49.30
2017-06-25T21:35:20.872Z,47.20
2017-06-25T21:37:48.670Z,47.20
2017-06-25T21:40:17.323Z,45.20
2017-06-25T21:42:45.086Z,44.70
2017-06-25T21:45:13.569Z,44.60
2017-06-25T21:47:41.741Z,44.20
2017-06-25T21:50:10.530Z,43.00
2017-06-25T21:52:38.397Z,43.80
2017-06-25T21:55:06.829Z,43.00
2017-06-25T21:57:34.745Z,42.60
2017-06-25T22:00:04.150Z,42.90
2017-06-25T22:02:32.119Z,43.10
2017-06-25T22:05:00.908Z,43.30
2017-06-25T22:07:28.776Z,43.40
2017-06-25T22:09:57.668Z,43.60
2017-06-25T22:12:26.455Z,44.00
2017-06-25T22:14:54.425Z,44.30
2017-06-25T22:17:22.328Z,44.20
2017-06-25T22:19:52.053Z,45.10
2017-06-25T22:22:21.307Z,44.50
2017-06-25T22:24:49.320Z,44.90
2017-06-25T22:27:17.353Z,44.90
2017-06-25T22:29:47.231Z,45.10
2017-06-25T22:32:16.049Z,45.30
2017-06-25T22:34:43.814Z,45.80
2017-06-25T22:37:11.617Z,46.10
2017-06-25T22:39:39.549Z,46.40
2017-06-25T22:42:07.826Z,46.80
2017-06-25T22:44:38.560Z,47.10
2017-06-25T22:47:06.735Z,47.20
2017-06-25T22:49:34.909Z,47.40
2017-06-25T22:52:02.777Z,47.70
2017-06-25T22:54:31.298Z,47.70
2017-06-25T22:57:00.764Z,48.00
2017-06-25T22:59:28.529Z,48.00
2017-06-25T23:01:56.498Z,48.30
2017-06-25T23:04:24.322Z,48.50
2017-06-25T23:06:52.103Z,48.90
2017-06-25T23:09:19.831Z,48.90
2017-06-25T23:11:48.173Z,48.90
2017-06-25T23:14:15.815Z,49.10
2017-06-25T23:16:43.599Z,49.40
2017-06-25T23:19:11.672Z,49.80
2017-06-25T23:21:39.743Z,50.20
2017-06-25T23:24:09.394Z,50.70
2017-06-25T23:26:38.617Z,50.80
2017-06-25T23:29:07.031Z,51.00
2017-06-25T23:31:34.899Z,51.30
2017-06-25T23:34:03.278Z,51.30
2017-06-25T23:36:31.144Z,51.80
2017-06-25T23:38:59.013Z,52.50
2017-06-25T23:41:28.314Z,52.80
2017-06-25T23:43:56.283Z,53.10
2017-06-25T23:46:24.181Z,53.50
2017-06-25T23:48:52.837Z,54.50
2017-06-25T23:51:21.503Z,54.50
2017-06-25T23:53:49.331Z,55.00
2017-06-25T23:56:17.135Z,55.10
2017-06-25T23:58:45.022Z,55.60
